sensor_id;sensor_type;location;lat;lon;timestamp;temperature;humidity
4097;DHT22;2062;50.694;7.246;2023-04-08T00:02:06;9.20;60.70
4097;DHT22;2062;50.694;7.246;2023-04-08T00:04:32;9.10;60.70
4097;DHT22;2062;50.694;7.246;2023-04-08T00:06:59;9.10;60.60
4097;DHT22;2062;50.694;7.246;2023-04-08T00:09:28;9.10;60.70
4097;DHT22;2062;50.694;7.246;2023-04-08T00:11:54;9.10;60.70
4097;DHT22;2062;50.694;7.246;2023-04-08T00:14:22;9.10;60.70
4097;DHT22;2062;50.694;7.246;2023-04-08T00:16:49;9.10;60.60
4097;DHT22;2062;50.694;7.246;2023-04-08T00:19:15;9.10;60.80
4097;DHT22;2062;50.694;7.246;2023-04-08T00:21:42;9.10;60.70
4097;DHT22;2062;50.694;7.246;2023-04-08T00:24:09;9.10;60.70
4097;DHT22;2062;50.694;7.246;2023-04-08T00:26:37;9.10;60.70
4097;DHT22;2062;50.694;7.246;2023-04-08T00:29:04;9.10;60.80
4097;DHT22;2062;50.694;7.246;2023-04-08T00:31:31;9.10;60.80
4097;DHT22;2062;50.694;7.246;2023-04-08T00:33:58;9.10;60.80
4097;DHT22;2062;50.694;7.246;2023-04-08T00:36:24;9.10;60.70
4097;DHT22;2062;50.694;7.246;2023-04-08T00:38:52;9.10;60.70
4097;DHT22;2062;50.694;7.246;2023-04-08T00:41:19;9.10;60.70
4097;DHT22;2062;50.694;7.246;2023-04-08T00:43:47;9.10;60.70
4097;DHT22;2062;50.694;7.246;2023-04-08T00:46:14;9.10;60.70
4097;DHT22;2062;50.694;7.246;2023-04-08T00:48:41;9.10;60.80
4097;DHT22;2062;50.694;7.246;2023-04-08T00:51:07;9.10;60.80
4097;DHT22;2062;50.694;7.246;2023-04-08T00:53:34;9.10;60.70
4097;DHT22;2062;50.694;7.246;2023-04-08T00:56:01;9.10;60.80
4097;DHT22;2062;50.694;7.246;2023-04-08T00:58:28;9.10;60.80
4097;DHT22;2062;50.694;7.246;2023-04-08T01:01:04;9.10;60.80
4097;DHT22;2062;50.694;7.246;2023-04-08T01:03:40;9.10;60.70
4097;DHT22;2062;50.694;7.246;2023-04-08T01:06:14;9.10;60.70
4097;DHT22;2062;50.694;7.246;2023-04-08T01:08:42;9.10;60.70
4097;DHT22;2062;50.694;7.246;2023-04-08T01:11:10;9.00;60.50
4097;DHT22;2062;50.694;7.246;2023-04-08T01:13:40;9.10;60.80
4097;DHT22;2062;50.694;7.246;2023-04-08T01:16:12;9.10;60.80
4097;DHT22;2062;50.694;7.246;2023-04-08T01:18:40;9.00;60.60
4097;DHT22;2062;50.694;7.246;2023-04-08T01:21:07;9.00;60.70
4097;DHT22;2062;50.694;7.246;2023-04-08T01:23:39;9.10;60.70
4097;DHT22;2062;50.694;7.246;2023-04-08T01:26:11;9.00;60.70
4097;DHT22;2062;50.694;7.246;2023-04-08T01:28:39;9.00;60.70
4097;DHT22;2062;50.694;7.246;2023-04-08T01:31:08;9.00;60.70
4097;DHT22;2062;50.694;7.246;2023-04-08T01:33:36;9.10;60.90
4097;DHT22;2062;50.694;7.246;2023-04-08T01:36:03;9.00;60.90
4097;DHT22;2062;50.694;7.246;2023-04-08T01:38:32;9.00;60.80
4097;DHT22;2062;50.694;7.246;2023-04-08T01:41:00;9.10;60.90
4097;DHT22;2062;50.694;7.246;2023-04-08T01:43:28;9.00;60.70
4097;DHT22;2062;50.694;7.246;2023-04-08T01:45:57;9.00;61.00
4097;DHT22;2062;50.694;7.246;2023-04-08T01:48:24;9.00;61.20
4097;DHT22;2062;50.694;7.246;2023-04-08T01:50:52;9.00;61.10
4097;DHT22;2062;50.694;7.246;2023-04-08T01:53:19;9.00;61.20
4097;DHT22;2062;50.694;7.246;2023-04-08T01:55:48;9.00;61.20
4097;DHT22;2062;50.694;7.246;2023-04-08T01:58:19;9.00;61.30
4097;DHT22;2062;50.694;7.246;2023-04-08T02:00:48;9.00;61.30
4097;DHT22;2062;50.694;7.246;2023-04-08T02:03:17;9.00;61.50
4097;DHT22;2062;50.694;7.246;2023-04-08T02:05:46;9.00;61.60
4097;DHT22;2062;50.694;7.246;2023-04-08T02:08:13;9.00;61.30
4097;DHT22;2062;50.694;7.246;2023-04-08T02:10:39;9.10;61.60
4097;DHT22;2062;50.694;7.246;2023-04-08T02:13:07;9.00;61.50
4097;DHT22;2062;50.694;7.246;2023-04-08T02:15:36;9.00;61.50
4097;DHT22;2062;50.694;7.246;2023-04-08T02:18:10;9.00;61.60
4097;DHT22;2062;50.694;7.246;2023-04-08T02:20:43;9.00;61.50
4097;DHT22;2062;50.694;7.246;2023-04-08T02:23:15;9.00;61.70
4097;DHT22;2062;50.694;7.246;2023-04-08T02:25:45;8.90;61.60
4097;DHT22;2062;50.694;7.246;2023-04-08T02:28:14;8.90;61.50
4097;DHT22;2062;50.694;7.246;2023-04-08T02:30:47;9.00;61.60
4097;DHT22;2062;50.694;7.246;2023-04-08T02:33:17;8.90;61.50
4097;DHT22;2062;50.694;7.246;2023-04-08T02:35:47;9.00;61.50
4097;DHT22;2062;50.694;7.246;2023-04-08T02:38:14;9.00;61.50
4097;DHT22;2062;50.694;7.246;2023-04-08T02:40:41;8.90;61.50
4097;DHT22;2062;50.694;7.246;2023-04-08T02:43:08;9.00;61.50
4097;DHT22;2062;50.694;7.246;2023-04-08T02:45:38;8.90;61.50
4097;DHT22;2062;50.694;7.246;2023-04-08T02:48:06;9.00;61.50
4097;DHT22;2062;50.694;7.246;2023-04-08T02:50:34;9.00;61.70
4097;DHT22;2062;50.694;7.246;2023-04-08T02:53:02;9.00;61.50
4097;DHT22;2062;50.694;7.246;2023-04-08T02:55:28;9.00;61.70
4097;DHT22;2062;50.694;7.246;2023-04-08T02:57:55;8.90;61.80
4097;DHT22;2062;50.694;7.246;2023-04-08T03:00:22;9.00;61.90
4097;DHT22;2062;50.694;7.246;2023-04-08T03:02:49;8.90;61.70
4097;DHT22;2062;50.694;7.246;2023-04-08T03:05:16;9.00;61.80
4097;DHT22;2062;50.694;7.246;2023-04-08T03:07:44;8.90;61.80
4097;DHT22;2062;50.694;7.246;2023-04-08T03:10:11;8.90;61.90
4097;DHT22;2062;50.694;7.246;2023-04-08T03:12:38;8.90;61.80
4097;DHT22;2062;50.694;7.246;2023-04-08T03:15:05;8.90;61.80
4097;DHT22;2062;50.694;7.246;2023-04-08T03:17:32;8.90;62.00
4097;DHT22;2062;50.694;7.246;2023-04-08T03:19:59;8.90;61.80
4097;DHT22;2062;50.694;7.246;2023-04-08T03:22:29;8.90;62.10
4097;DHT22;2062;50.694;7.246;2023-04-08T03:24:57;8.90;62.10
4097;DHT22;2062;50.694;7.246;2023-04-08T03:27:24;8.90;62.10
4097;DHT22;2062;50.694;7.246;2023-04-08T03:29:51;8.90;62.30
4097;DHT22;2062;50.694;7.246;2023-04-08T03:32:18;8.90;62.20
4097;DHT22;2062;50.694;7.246;2023-04-08T03:34:45;8.90;62.10
4097;DHT22;2062;50.694;7.246;2023-04-08T03:37:15;8.90;62.10
4097;DHT22;2062;50.694;7.246;2023-04-08T03:39:42;8.90;62.10
4097;DHT22;2062;50.694;7.246;2023-04-08T03:42:10;8.90;62.20
4097;DHT22;2062;50.694;7.246;2023-04-08T03:44:37;8.90;62.20
4097;DHT22;2062;50.694;7.246;2023-04-08T03:47:04;8.90;62.20
4097;DHT22;2062;50.694;7.246;2023-04-08T03:49:31;8.90;62.10
4097;DHT22;2062;50.694;7.246;2023-04-08T03:51:57;8.90;62.20
4097;DHT22;2062;50.694;7.246;2023-04-08T03:54:24;8.90;62.20
4097;DHT22;2062;50.694;7.246;2023-04-08T03:56:51;8.90;62.20
4097;DHT22;2062;50.694;7.246;2023-04-08T03:59:19;8.90;62.20
4097;DHT22;2062;50.694;7.246;2023-04-08T04:01:46;8.90;62.40
4097;DHT22;2062;50.694;7.246;2023-04-08T04:04:13;8.90;62.50
4097;DHT22;2062;50.694;7.246;2023-04-08T04:06:40;8.90;62.40
4097;DHT22;2062;50.694;7.246;2023-04-08T04:09:07;8.80;62.40
4097;DHT22;2062;50.694;7.246;2023-04-08T04:11:34;8.80;62.40
4097;DHT22;2062;50.694;7.246;2023-04-08T04:14:01;8.90;62.60
4097;DHT22;2062;50.694;7.246;2023-04-08T04:16:29;8.80;62.40
4097;DHT22;2062;50.694;7.246;2023-04-08T04:18:56;8.80;62.50
4097;DHT22;2062;50.694;7.246;2023-04-08T04:21:23;8.80;62.40
4097;DHT22;2062;50.694;7.246;2023-04-08T04:23:50;8.80;62.40
4097;DHT22;2062;50.694;7.246;2023-04-08T04:26:16;8.80;62.40
4097;DHT22;2062;50.694;7.246;2023-04-08T04:28:43;8.80;62.50
4097;DHT22;2062;50.694;7.246;2023-04-08T04:31:18;8.80;62.70
4097;DHT22;2062;50.694;7.246;2023-04-08T04:33:47;8.90;62.70
4097;DHT22;2062;50.694;7.246;2023-04-08T04:36:14;8.80;62.80
4097;DHT22;2062;50.694;7.246;2023-04-08T04:38:41;8.80;62.80
4097;DHT22;2062;50.694;7.246;2023-04-08T04:41:08;8.80;62.80
4097;DHT22;2062;50.694;7.246;2023-04-08T04:43:35;8.80;62.70
4097;DHT22;2062;50.694;7.246;2023-04-08T04:46:02;8.90;62.80
4097;DHT22;2062;50.694;7.246;2023-04-08T04:48:31;8.80;62.70
4097;DHT22;2062;50.694;7.246;2023-04-08T04:51:00;8.80;62.70
4097;DHT22;2062;50.694;7.246;2023-04-08T04:53:28;8.80;62.50
4097;DHT22;2062;50.694;7.246;2023-04-08T04:55:54;8.80;62.90
4097;DHT22;2062;50.694;7.246;2023-04-08T04:58:21;8.80;62.90
4097;DHT22;2062;50.694;7.246;2023-04-08T05:00:48;8.80;62.80
4097;DHT22;2062;50.694;7.246;2023-04-08T05:03:15;8.80;62.90
4097;DHT22;2062;50.694;7.246;2023-04-08T05:05:42;8.80;62.90
4097;DHT22;2062;50.694;7.246;2023-04-08T05:08:10;8.80;62.80
4097;DHT22;2062;50.694;7.246;2023-04-08T05:10:39;8.80;62.70
4097;DHT22;2062;50.694;7.246;2023-04-08T05:13:06;8.80;62.90
4097;DHT22;2062;50.694;7.246;2023-04-08T05:15:33;8.80;63.00
4097;DHT22;2062;50.694;7.246;2023-04-08T05:18:00;8.80;63.00
4097;DHT22;2062;50.694;7.246;2023-04-08T05:20:27;8.80;62.90
4097;DHT22;2062;50.694;7.246;2023-04-08T05:22:54;8.80;62.90
4097;DHT22;2062;50.694;7.246;2023-04-08T05:25:22;8.80;63.10
4097;DHT22;2062;50.694;7.246;2023-04-08T05:27:49;8.80;62.90
4097;DHT22;2062;50.694;7.246;2023-04-08T05:30:15;8.80;63.40
4097;DHT22;2062;50.694;7.246;2023-04-08T05:32:43;8.80;63.30
4097;DHT22;2062;50.694;7.246;2023-04-08T05:35:10;8.80;63.50
4097;DHT22;2062;50.694;7.246;2023-04-08T05:37:37;8.80;63.40
4097;DHT22;2062;50.694;7.246;2023-04-08T05:40:05;8.80;63.40
4097;DHT22;2062;50.694;7.246;2023-04-08T05:42:33;8.80;63.50
4097;DHT22;2062;50.694;7.246;2023-04-08T05:45:00;8.80;63.50
4097;DHT22;2062;50.694;7.246;2023-04-08T05:47:27;8.80;63.50
4097;DHT22;2062;50.694;7.246;2023-04-08T05:49:54;8.80;63.80
4097;DHT22;2062;50.694;7.246;2023-04-08T05:52:21;8.90;63.90
4097;DHT22;2062;50.694;7.246;2023-04-08T05:54:48;8.80;64.00
4097;DHT22;2062;50.694;7.246;2023-04-08T05:57:14;8.90;64.10
4097;DHT22;2062;50.694;7.246;2023-04-08T05:59:43;8.80;64.30
4097;DHT22;2062;50.694;7.246;2023-04-08T06:02:10;8.90;64.50
4097;DHT22;2062;50.694;7.246;2023-04-08T06:04:37;8.90;64.90
4097;DHT22;2062;50.694;7.246;2023-04-08T06:07:04;8.90;64.80
4097;DHT22;2062;50.694;7.246;2023-04-08T06:09:34;8.90;64.90
4097;DHT22;2062;50.694;7.246;2023-04-08T06:12:01;8.90;64.80
4097;DHT22;2062;50.694;7.246;2023-04-08T06:14:28;8.90;64.90
4097;DHT22;2062;50.694;7.246;2023-04-08T06:16:56;8.90;64.80
4097;DHT22;2062;50.694;7.246;2023-04-08T06:19:23;9.00;64.80
4097;DHT22;2062;50.694;7.246;2023-04-08T06:21:50;9.00;64.90
4097;DHT22;2062;50.694;7.246;2023-04-08T06:24:17;9.00;65.00
4097;DHT22;2062;50.694;7.246;2023-04-08T06:26:44;9.00;65.00
4097;DHT22;2062;50.694;7.246;2023-04-08T06:29:10;9.00;65.10
4097;DHT22;2062;50.694;7.246;2023-04-08T06:31:37;9.00;64.90
4097;DHT22;2062;50.694;7.246;2023-04-08T06:34:05;9.00;64.90
4097;DHT22;2062;50.694;7.246;2023-04-08T06:36:32;9.00;64.80
4097;DHT22;2062;50.694;7.246;2023-04-08T06:38:59;9.10;64.90
4097;DHT22;2062;50.694;7.246;2023-04-08T06:41:26;9.10;65.10
4097;DHT22;2062;50.694;7.246;2023-04-08T06:43:53;9.10;65.00
4097;DHT22;2062;50.694;7.246;2023-04-08T06:46:19;9.10;64.90
4097;DHT22;2062;50.694;7.246;2023-04-08T06:48:46;9.10;64.90
4097;DHT22;2062;50.694;7.246;2023-04-08T06:51:14;9.10;65.10
4097;DHT22;2062;50.694;7.246;2023-04-08T06:53:41;9.20;65.00
4097;DHT22;2062;50.694;7.246;2023-04-08T06:56:08;9.20;65.10
4097;DHT22;2062;50.694;7.246;2023-04-08T06:58:35;9.20;65.10
4097;DHT22;2062;50.694;7.246;2023-04-08T07:01:02;9.20;65.20
4097;DHT22;2062;50.694;7.246;2023-04-08T07:03:29;9.20;65.20
4097;DHT22;2062;50.694;7.246;2023-04-08T07:05:56;9.20;65.20
4097;DHT22;2062;50.694;7.246;2023-04-08T07:08:24;9.30;65.20
4097;DHT22;2062;50.694;7.246;2023-04-08T07:10:51;9.30;65.30
4097;DHT22;2062;50.694;7.246;2023-04-08T07:13:18;9.30;65.20
4097;DHT22;2062;50.694;7.246;2023-04-08T07:15:45;9.40;65.20
4097;DHT22;2062;50.694;7.246;2023-04-08T07:18:12;9.40;65.20
4097;DHT22;2062;50.694;7.246;2023-04-08T07:20:39;9.40;65.30
4097;DHT22;2062;50.694;7.246;2023-04-08T07:23:06;9.50;65.20
4097;DHT22;2062;50.694;7.246;2023-04-08T07:25:34;9.50;65.20
4097;DHT22;2062;50.694;7.246;2023-04-08T07:28:01;9.50;65.10
4097;DHT22;2062;50.694;7.246;2023-04-08T07:30:28;9.50;65.10
4097;DHT22;2062;50.694;7.246;2023-04-08T07:32:55;9.60;65.20
4097;DHT22;2062;50.694;7.246;2023-04-08T07:35:22;9.60;65.30
4097;DHT22;2062;50.694;7.246;2023-04-08T07:37:50;9.60;65.20
4097;DHT22;2062;50.694;7.246;2023-04-08T07:40:18;9.60;65.10
4097;DHT22;2062;50.694;7.246;2023-04-08T07:42:46;9.70;65.20
4097;DHT22;2062;50.694;7.246;2023-04-08T07:45:14;9.60;65.00
4097;DHT22;2062;50.694;7.246;2023-04-08T07:47:41;9.70;65.20
4097;DHT22;2062;50.694;7.246;2023-04-08T07:50:08;9.70;65.10
4097;DHT22;2062;50.694;7.246;2023-04-08T07:52:35;9.80;65.20
4097;DHT22;2062;50.694;7.246;2023-04-08T07:55:02;9.80;65.20
4097;DHT22;2062;50.694;7.246;2023-04-08T07:57:30;9.90;65.20
4097;DHT22;2062;50.694;7.246;2023-04-08T07:59:58;9.90;65.00
4097;DHT22;2062;50.694;7.246;2023-04-08T08:02:25;10.00;64.80
4097;DHT22;2062;50.694;7.246;2023-04-08T08:04:52;10.00;64.70
4097;DHT22;2062;50.694;7.246;2023-04-08T08:07:18;10.00;64.70
4097;DHT22;2062;50.694;7.246;2023-04-08T08:09:45;10.00;64.60
4097;DHT22;2062;50.694;7.246;2023-04-08T08:12:12;10.10;64.70
4097;DHT22;2062;50.694;7.246;2023-04-08T08:14:39;10.10;64.60
4097;DHT22;2062;50.694;7.246;2023-04-08T08:17:07;10.20;64.70
4097;DHT22;2062;50.694;7.246;2023-04-08T08:19:34;10.20;64.60
4097;DHT22;2062;50.694;7.246;2023-04-08T08:22:00;10.20;64.60
4097;DHT22;2062;50.694;7.246;2023-04-08T08:24:27;10.30;64.70
4097;DHT22;2062;50.694;7.246;2023-04-08T08:26:54;10.30;64.70
4097;DHT22;2062;50.694;7.246;2023-04-08T08:29:21;10.30;64.60
4097;DHT22;2062;50.694;7.246;2023-04-08T08:31:48;10.40;64.70
4097;DHT22;2062;50.694;7.246;2023-04-08T08:34:16;10.40;64.50
4097;DHT22;2062;50.694;7.246;2023-04-08T08:36:42;10.50;64.60
4097;DHT22;2062;50.694;7.246;2023-04-08T08:39:09;10.50;64.30
4097;DHT22;2062;50.694;7.246;2023-04-08T08:41:36;10.50;64.30
4097;DHT22;2062;50.694;7.246;2023-04-08T08:44:04;10.60;64.20
4097;DHT22;2062;50.694;7.246;2023-04-08T08:46:32;10.60;64.10
4097;DHT22;2062;50.694;7.246;2023-04-08T08:48:59;10.70;64.00
4097;DHT22;2062;50.694;7.246;2023-04-08T08:51:29;10.70;63.90
4097;DHT22;2062;50.694;7.246;2023-04-08T08:54:00;10.70;63.90
4097;DHT22;2062;50.694;7.246;2023-04-08T08:56:27;10.70;63.90
4097;DHT22;2062;50.694;7.246;2023-04-08T08:58:54;10.80;63.80
4097;DHT22;2062;50.694;7.246;2023-04-08T09:01:31;10.80;63.70
4097;DHT22;2062;50.694;7.246;2023-04-08T09:04:12;10.80;63.50
4097;DHT22;2062;50.694;7.246;2023-04-08T09:06:42;10.90;63.60
4097;DHT22;2062;50.694;7.246;2023-04-08T09:09:09;11.00;63.50
4097;DHT22;2062;50.694;7.246;2023-04-08T09:11:37;10.90;63.20
4097;DHT22;2062;50.694;7.246;2023-04-08T09:14:07;11.00;63.20
4097;DHT22;2062;50.694;7.246;2023-04-08T09:16:42;11.00;63.10
4097;DHT22;2062;50.694;7.246;2023-04-08T09:19:10;11.10;63.10
4097;DHT22;2062;50.694;7.246;2023-04-08T09:21:38;11.10;62.80
4097;DHT22;2062;50.694;7.246;2023-04-08T09:24:07;11.20;62.80
4097;DHT22;2062;50.694;7.246;2023-04-08T09:26:35;11.20;63.40
4097;DHT22;2062;50.694;7.246;2023-04-08T09:29:04;11.20;62.30
4097;DHT22;2062;50.694;7.246;2023-04-08T09:31:32;11.30;62.60
4097;DHT22;2062;50.694;7.246;2023-04-08T09:34:09;11.30;62.80
4097;DHT22;2062;50.694;7.246;2023-04-08T09:36:36;11.40;62.60
4097;DHT22;2062;50.694;7.246;2023-04-08T09:39:04;11.40;62.60
4097;DHT22;2062;50.694;7.246;2023-04-08T09:41:34;11.50;62.40
4097;DHT22;2062;50.694;7.246;2023-04-08T09:44:03;11.60;62.40
4097;DHT22;2062;50.694;7.246;2023-04-08T09:46:34;11.70;63.30
4097;DHT22;2062;50.694;7.246;2023-04-08T09:49:05;11.80;62.20
4097;DHT22;2062;50.694;7.246;2023-04-08T09:51:39;11.80;62.30
4097;DHT22;2062;50.694;7.246;2023-04-08T09:54:11;11.90;62.00
4097;DHT22;2062;50.694;7.246;2023-04-08T09:56:48;11.90;61.70
4097;DHT22;2062;50.694;7.246;2023-04-08T09:59:17;12.10;61.80
4097;DHT22;2062;50.694;7.246;2023-04-08T10:01:51;12.10;61.60
4097;DHT22;2062;50.694;7.246;2023-04-08T10:04:20;12.10;61.60
4097;DHT22;2062;50.694;7.246;2023-04-08T10:06:50;12.20;61.30
4097;DHT22;2062;50.694;7.246;2023-04-08T10:09:19;12.20;61.00
4097;DHT22;2062;50.694;7.246;2023-04-08T10:11:48;12.30;60.70
4097;DHT22;2062;50.694;7.246;2023-04-08T10:14:15;12.30;60.30
4097;DHT22;2062;50.694;7.246;2023-04-08T10:16:43;12.30;60.30
4097;DHT22;2062;50.694;7.246;2023-04-08T10:19:37;12.30;60.10
4097;DHT22;2062;50.694;7.246;2023-04-08T10:22:47;12.30;59.80
4097;DHT22;2062;50.694;7.246;2023-04-08T10:25:30;12.30;59.80
4097;DHT22;2062;50.694;7.246;2023-04-08T10:27:59;12.30;59.60
4097;DHT22;2062;50.694;7.246;2023-04-08T10:30:43;12.40;59.80
4097;DHT22;2062;50.694;7.246;2023-04-08T10:33:11;12.40;59.70
4097;DHT22;2062;50.694;7.246;2023-04-08T10:35:41;12.40;59.70
4097;DHT22;2062;50.694;7.246;2023-04-08T10:38:11;12.50;59.70
4097;DHT22;2062;50.694;7.246;2023-04-08T10:40:39;12.40;59.30
4097;DHT22;2062;50.694;7.246;2023-04-08T10:43:09;12.40;59.00
4097;DHT22;2062;50.694;7.246;2023-04-08T10:45:36;12.40;58.60
4097;DHT22;2062;50.694;7.246;2023-04-08T10:50:40;12.40;58.40
4097;DHT22;2062;50.694;7.246;2023-04-08T10:53:07;12.40;58.60
4097;DHT22;2062;50.694;7.246;2023-04-08T10:55:35;12.40;58.30
4097;DHT22;2062;50.694;7.246;2023-04-08T10:58:07;12.40;58.20
4097;DHT22;2062;50.694;7.246;2023-04-08T11:00:36;12.40;58.10
4097;DHT22;2062;50.694;7.246;2023-04-08T11:03:04;12.40;58.30
4097;DHT22;2062;50.694;7.246;2023-04-08T11:05:31;12.40;58.20
4097;DHT22;2062;50.694;7.246;2023-04-08T11:07:58;12.40;58.20
4097;DHT22;2062;50.694;7.246;2023-04-08T11:10:26;12.40;58.10
4097;DHT22;2062;50.694;7.246;2023-04-08T11:12:53;12.50;58.90
4097;DHT22;2062;50.694;7.246;2023-04-08T11:15:23;12.50;58.20
4097;DHT22;2062;50.694;7.246;2023-04-08T11:17:51;12.50;57.90
4097;DHT22;2062;50.694;7.246;2023-04-08T11:20:18;12.50;57.90
4097;DHT22;2062;50.694;7.246;2023-04-08T11:22:46;12.50;58.00
4097;DHT22;2062;50.694;7.246;2023-04-08T11:25:13;12.40;57.70
4097;DHT22;2062;50.694;7.246;2023-04-08T11:27:40;12.40;57.90
4097;DHT22;2062;50.694;7.246;2023-04-08T11:30:08;12.50;57.80
4097;DHT22;2062;50.694;7.246;2023-04-08T11:32:38;12.50;57.70
4097;DHT22;2062;50.694;7.246;2023-04-08T11:35:05;12.50;57.20
4097;DHT22;2062;50.694;7.246;2023-04-08T11:37:41;12.60;57.10
4097;DHT22;2062;50.694;7.246;2023-04-08T11:40:10;12.60;57.30
4097;DHT22;2062;50.694;7.246;2023-04-08T11:42:38;12.60;57.50
4097;DHT22;2062;50.694;7.246;2023-04-08T11:45:11;12.70;56.90
4097;DHT22;2062;50.694;7.246;2023-04-08T11:47:39;12.70;56.90
4097;DHT22;2062;50.694;7.246;2023-04-08T11:50:07;12.80;56.60
4097;DHT22;2062;50.694;7.246;2023-04-08T11:52:42;12.90;56.40
4097;DHT22;2062;50.694;7.246;2023-04-08T11:55:09;12.90;56.00
4097;DHT22;2062;50.694;7.246;2023-04-08T11:57:36;12.90;56.20
4097;DHT22;2062;50.694;7.246;2023-04-08T12:00:04;13.00;56.00
4097;DHT22;2062;50.694;7.246;2023-04-08T12:02:31;13.00;56.10
4097;DHT22;2062;50.694;7.246;2023-04-08T12:04:59;13.00;55.60
4097;DHT22;2062;50.694;7.246;2023-04-08T12:07:27;13.00;55.50
4097;DHT22;2062;50.694;7.246;2023-04-08T12:09:53;13.00;55.40
4097;DHT22;2062;50.694;7.246;2023-04-08T12:12:20;13.00;55.60
4097;DHT22;2062;50.694;7.246;2023-04-08T12:14:47;13.10;55.80
4097;DHT22;2062;50.694;7.246;2023-04-08T12:17:14;13.00;54.70
4097;DHT22;2062;50.694;7.246;2023-04-08T12:19:41;13.00;54.90
4097;DHT22;2062;50.694;7.246;2023-04-08T12:22:09;13.00;54.80
4097;DHT22;2062;50.694;7.246;2023-04-08T12:24:36;13.00;55.00
4097;DHT22;2062;50.694;7.246;2023-04-08T12:27:03;13.10;55.20
4097;DHT22;2062;50.694;7.246;2023-04-08T12:29:30;13.00;55.20
4097;DHT22;2062;50.694;7.246;2023-04-08T12:31:57;13.10;55.10
4097;DHT22;2062;50.694;7.246;2023-04-08T12:34:24;13.10;54.90
4097;DHT22;2062;50.694;7.246;2023-04-08T12:36:51;13.00;54.80
4097;DHT22;2062;50.694;7.246;2023-04-08T12:39:19;13.10;54.80
4097;DHT22;2062;50.694;7.246;2023-04-08T12:41:46;13.10;54.60
4097;DHT22;2062;50.694;7.246;2023-04-08T12:44:13;13.10;54.50
4097;DHT22;2062;50.694;7.246;2023-04-08T12:46:40;13.00;54.30
4097;DHT22;2062;50.694;7.246;2023-04-08T12:49:07;13.10;54.50
4097;DHT22;2062;50.694;7.246;2023-04-08T12:51:34;13.10;54.70
4097;DHT22;2062;50.694;7.246;2023-04-08T12:54:01;13.10;54.60
4097;DHT22;2062;50.694;7.246;2023-04-08T12:56:29;13.20;54.70
4097;DHT22;2062;50.694;7.246;2023-04-08T12:58:57;13.30;55.10
4097;DHT22;2062;50.694;7.246;2023-04-08T13:01:24;13.30;55.00
4097;DHT22;2062;50.694;7.246;2023-04-08T13:03:50;13.30;54.70
4097;DHT22;2062;50.694;7.246;2023-04-08T13:06:17;13.40;54.20
4097;DHT22;2062;50.694;7.246;2023-04-08T13:08:44;13.40;54.20
4097;DHT22;2062;50.694;7.246;2023-04-08T13:11:11;13.50;54.40
4097;DHT22;2062;50.694;7.246;2023-04-08T13:13:40;13.50;54.10
4097;DHT22;2062;50.694;7.246;2023-04-08T13:16:06;13.60;53.70
4097;DHT22;2062;50.694;7.246;2023-04-08T13:18:34;13.60;54.00
4097;DHT22;2062;50.694;7.246;2023-04-08T13:21:01;13.70;54.40
4097;DHT22;2062;50.694;7.246;2023-04-08T13:23:28;13.80;54.30
4097;DHT22;2062;50.694;7.246;2023-04-08T13:25:55;13.80;54.30
4097;DHT22;2062;50.694;7.246;2023-04-08T13:28:21;13.90;54.50
4097;DHT22;2062;50.694;7.246;2023-04-08T13:30:49;14.00;54.00
4097;DHT22;2062;50.694;7.246;2023-04-08T13:33:17;14.00;53.70
4097;DHT22;2062;50.694;7.246;2023-04-08T13:35:43;14.10;53.40
4097;DHT22;2062;50.694;7.246;2023-04-08T13:38:10;14.10;53.10
4097;DHT22;2062;50.694;7.246;2023-04-08T13:40:37;14.20;53.40
4097;DHT22;2062;50.694;7.246;2023-04-08T13:43:04;14.40;53.50
4097;DHT22;2062;50.694;7.246;2023-04-08T13:45:31;14.30;53.10
4097;DHT22;2062;50.694;7.246;2023-04-08T13:47:59;14.40;53.20
4097;DHT22;2062;50.694;7.246;2023-04-08T13:50:26;14.40;53.40
4097;DHT22;2062;50.694;7.246;2023-04-08T13:52:53;14.50;53.00
4097;DHT22;2062;50.694;7.246;2023-04-08T13:55:19;14.50;52.80
4097;DHT22;2062;50.694;7.246;2023-04-08T13:57:46;14.60;52.50
4097;DHT22;2062;50.694;7.246;2023-04-08T14:00:13;14.70;52.60
4097;DHT22;2062;50.694;7.246;2023-04-08T14:02:41;14.70;52.80
4097;DHT22;2062;50.694;7.246;2023-04-08T14:05:09;14.70;52.70
4097;DHT22;2062;50.694;7.246;2023-04-08T14:07:36;14.70;52.70
4097;DHT22;2062;50.694;7.246;2023-04-08T14:10:04;14.80;52.60
4097;DHT22;2062;50.694;7.246;2023-04-08T14:12:31;14.80;52.20
4097;DHT22;2062;50.694;7.246;2023-04-08T14:14:57;14.90;52.40
4097;DHT22;2062;50.694;7.246;2023-04-08T14:17:24;14.90;52.20
4097;DHT22;2062;50.694;7.246;2023-04-08T14:19:51;14.90;52.00
4097;DHT22;2062;50.694;7.246;2023-04-08T14:22:19;14.90;51.90
4097;DHT22;2062;50.694;7.246;2023-04-08T14:24:46;14.90;51.00
4097;DHT22;2062;50.694;7.246;2023-04-08T14:27:13;14.90;50.90
4097;DHT22;2062;50.694;7.246;2023-04-08T14:29:40;14.90;50.80
4097;DHT22;2062;50.694;7.246;2023-04-08T14:32:07;15.00;50.80
4097;DHT22;2062;50.694;7.246;2023-04-08T14:34:33;15.00;50.60
4097;DHT22;2062;50.694;7.246;2023-04-08T14:37:00;14.90;50.30
4097;DHT22;2062;50.694;7.246;2023-04-08T14:39:29;14.90;50.60
4097;DHT22;2062;50.694;7.246;2023-04-08T14:41:55;14.90;50.60
4097;DHT22;2062;50.694;7.246;2023-04-08T14:44:23;14.90;50.10
4097;DHT22;2062;50.694;7.246;2023-04-08T14:46:50;14.90;50.00
4097;DHT22;2062;50.694;7.246;2023-04-08T14:49:16;14.90;50.10
4097;DHT22;2062;50.694;7.246;2023-04-08T14:51:43;14.90;50.20
4097;DHT22;2062;50.694;7.246;2023-04-08T14:54:10;15.00;50.10
4097;DHT22;2062;50.694;7.246;2023-04-08T14:56:39;14.90;50.00
4097;DHT22;2062;50.694;7.246;2023-04-08T14:59:06;14.90;49.90
4097;DHT22;2062;50.694;7.246;2023-04-08T15:01:33;15.00;50.20
4097;DHT22;2062;50.694;7.246;2023-04-08T15:04:00;14.90;49.90
4097;DHT22;2062;50.694;7.246;2023-04-08T15:06:27;15.00;49.90
4097;DHT22;2062;50.694;7.246;2023-04-08T15:08:55;15.00;49.70
4097;DHT22;2062;50.694;7.246;2023-04-08T15:11:22;15.00;50.20
4097;DHT22;2062;50.694;7.246;2023-04-08T15:13:50;15.10;49.50
4097;DHT22;2062;50.694;7.246;2023-04-08T15:16:17;15.10;49.30
4097;DHT22;2062;50.694;7.246;2023-04-08T15:18:43;15.00;49.50
4097;DHT22;2062;50.694;7.246;2023-04-08T15:21:10;15.10;49.50
4097;DHT22;2062;50.694;7.246;2023-04-08T15:23:37;15.10;49.50
4097;DHT22;2062;50.694;7.246;2023-04-08T15:26:06;15.10;49.20
4097;DHT22;2062;50.694;7.246;2023-04-08T15:28:33;15.10;48.90
4097;DHT22;2062;50.694;7.246;2023-04-08T15:31:03;15.20;49.10
4097;DHT22;2062;50.694;7.246;2023-04-08T15:33:31;15.10;48.80
4097;DHT22;2062;50.694;7.246;2023-04-08T15:35:58;15.10;49.00
4097;DHT22;2062;50.694;7.246;2023-04-08T15:38:28;15.20;49.20
4097;DHT22;2062;50.694;7.246;2023-04-08T15:40:55;15.20;49.20
4097;DHT22;2062;50.694;7.246;2023-04-08T15:43:22;15.20;48.70
4097;DHT22;2062;50.694;7.246;2023-04-08T15:45:48;15.10;48.50
4097;DHT22;2062;50.694;7.246;2023-04-08T15:48:17;15.10;48.50
4097;DHT22;2062;50.694;7.246;2023-04-08T15:50:44;15.10;48.70
4097;DHT22;2062;50.694;7.246;2023-04-08T15:53:11;15.10;48.50
4097;DHT22;2062;50.694;7.246;2023-04-08T15:55:38;15.00;48.80
4097;DHT22;2062;50.694;7.246;2023-04-08T15:58:05;15.00;48.50
4097;DHT22;2062;50.694;7.246;2023-04-08T16:00:32;15.00;48.20
4097;DHT22;2062;50.694;7.246;2023-04-08T16:02:59;15.00;48.40
4097;DHT22;2062;50.694;7.246;2023-04-08T16:05:27;14.90;48.40
4097;DHT22;2062;50.694;7.246;2023-04-08T16:07:55;14.90;48.60
4097;DHT22;2062;50.694;7.246;2023-04-08T16:10:22;14.90;48.40
4097;DHT22;2062;50.694;7.246;2023-04-08T16:12:49;14.90;48.30
4097;DHT22;2062;50.694;7.246;2023-04-08T16:15:16;14.80;48.20
4097;DHT22;2062;50.694;7.246;2023-04-08T16:17:43;14.70;48.10